sensor_id;sensor_type;location;lat;lon;timestamp;P1;durP1;ratioP1;P2;durP2;ratioP2
72517;SDS011;60540;51.178;6.738;2023-10-19T00:01:07;7.40;;;4.75;;
72517;SDS011;60540;51.178;6.738;2023-10-19T00:03:36;9.88;;;4.80;;
72517;SDS011;60540;51.178;6.738;2023-10-19T00:06:02;8.80;;;4.78;;
72517;SDS011;60540;51.178;6.738;2023-10-19T00:08:28;7.43;;;4.50;;
72517;SDS011;60540;51.178;6.738;2023-10-19T00:11:02;10.60;;;5.15;;
72517;SDS011;60540;51.178;6.738;2023-10-19T00:13:30;10.65;;;4.63;;
72517;SDS011;60540;51.178;6.738;2023-10-19T00:15:56;10.32;;;5.20;;
72517;SDS011;60540;51.178;6.738;2023-10-19T00:18:25;9.05;;;5.50;;
72517;SDS011;60540;51.178;6.738;2023-10-19T00:20:51;8.80;;;5.35;;
72517;SDS011;60540;51.178;6.738;2023-10-19T00:23:19;8.75;;;4.82;;
72517;SDS011;60540;51.178;6.738;2023-10-19T00:25:57;11.35;;;5.72;;
72517;SDS011;60540;51.178;6.738;2023-10-19T00:28:24;8.50;;;5.03;;
72517;SDS011;60540;51.178;6.738;2023-10-19T00:30:52;8.23;;;5.00;;
72517;SDS011;60540;51.178;6.738;2023-10-19T00:33:19;9.30;;;5.03;;
72517;SDS011;60540;51.178;6.738;2023-10-19T00:35:46;7.88;;;4.68;;
72517;SDS011;60540;51.178;6.738;2023-10-19T00:38:16;9.95;;;5.28;;
72517;SDS011;60540;51.178;6.738;2023-10-19T00:40:57;11.35;;;5.22;;
72517;SDS011;60540;51.178;6.738;2023-10-19T00:43:32;9.82;;;5.60;;
72517;SDS011;60540;51.178;6.738;2023-10-19T00:46:00;9.65;;;5.65;;
72517;SDS011;60540;51.178;6.738;2023-10-19T00:48:49;9.35;;;5.57;;
72517;SDS011;60540;51.178;6.738;2023-10-19T00:51:22;10.75;;;5.80;;
72517;SDS011;60540;51.178;6.738;2023-10-19T00:53:54;9.90;;;5.95;;
72517;SDS011;60540;51.178;6.738;2023-10-19T00:56:21;10.68;;;5.65;;
72517;SDS011;60540;51.178;6.738;2023-10-19T00:58:49;8.43;;;5.13;;
72517;SDS011;60540;51.178;6.738;2023-10-19T01:01:22;10.90;;;6.28;;
72517;SDS011;60540;51.178;6.738;2023-10-19T01:03:50;8.80;;;5.45;;
72517;SDS011;60540;51.178;6.738;2023-10-19T01:06:22;9.85;;;5.25;;
72517;SDS011;60540;51.178;6.738;2023-10-19T01:08:48;11.43;;;5.82;;
72517;SDS011;60540;51.178;6.738;2023-10-19T01:11:16;10.40;;;5.68;;
72517;SDS011;60540;51.178;6.738;2023-10-19T01:13:46;10.30;;;6.05;;
72517;SDS011;60540;51.178;6.738;2023-10-19T01:16:14;11.80;;;6.10;;
72517;SDS011;60540;51.178;6.738;2023-10-19T01:18:49;9.35;;;5.90;;
72517;SDS011;60540;51.178;6.738;2023-10-19T01:23:46;10.25;;;5.70;;
72517;SDS011;60540;51.178;6.738;2023-10-19T01:26:13;10.18;;;5.00;;
72517;SDS011;60540;51.178;6.738;2023-10-19T01:28:46;10.13;;;5.43;;
72517;SDS011;60540;51.178;6.738;2023-10-19T01:31:27;10.02;;;5.53;;
72517;SDS011;60540;51.178;6.738;2023-10-19T01:33:53;8.57;;;5.03;;
72517;SDS011;60540;51.178;6.738;2023-10-19T01:36:22;8.27;;;4.93;;
72517;SDS011;60540;51.178;6.738;2023-10-19T01:38:47;7.63;;;4.35;;
72517;SDS011;60540;51.178;6.738;2023-10-19T01:41:14;10.30;;;5.20;;
72517;SDS011;60540;51.178;6.738;2023-10-19T01:43:44;8.88;;;4.68;;
72517;SDS011;60540;51.178;6.738;2023-10-19T01:46:11;9.80;;;4.97;;
72517;SDS011;60540;51.178;6.738;2023-10-19T01:48:40;8.05;;;4.93;;
72517;SDS011;60540;51.178;6.738;2023-10-19T01:51:08;9.57;;;5.40;;
72517;SDS011;60540;51.178;6.738;2023-10-19T01:53:40;9.00;;;5.40;;
72517;SDS011;60540;51.178;6.738;2023-10-19T01:56:10;9.18;;;5.45;;
72517;SDS011;60540;51.178;6.738;2023-10-19T01:58:38;9.77;;;5.18;;
72517;SDS011;60540;51.178;6.738;2023-10-19T02:01:08;8.98;;;5.32;;
72517;SDS011;60540;51.178;6.738;2023-10-19T02:03:34;9.38;;;5.65;;
72517;SDS011;60540;51.178;6.738;2023-10-19T02:06:01;10.15;;;5.47;;
72517;SDS011;60540;51.178;6.738;2023-10-19T02:08:48;10.48;;;6.72;;
72517;SDS011;60540;51.178;6.738;2023-10-19T02:11:22;8.93;;;4.95;;
72517;SDS011;60540;51.178;6.738;2023-10-19T02:13:49;9.32;;;5.13;;
72517;SDS011;60540;51.178;6.738;2023-10-19T02:16:17;8.68;;;4.63;;
72517;SDS011;60540;51.178;6.738;2023-10-19T02:18:50;7.45;;;4.43;;
72517;SDS011;60540;51.178;6.738;2023-10-19T02:21:17;8.02;;;4.75;;
72517;SDS011;60540;51.178;6.738;2023-10-19T02:23:52;8.60;;;4.85;;
72517;SDS011;60540;51.178;6.738;2023-10-19T02:26:19;9.98;;;5.90;;
72517;SDS011;60540;51.178;6.738;2023-10-19T02:28:46;11.68;;;6.03;;
72517;SDS011;60540;51.178;6.738;2023-10-19T02:31:12;11.65;;;6.45;;
72517;SDS011;60540;51.178;6.738;2023-10-19T02:33:47;11.98;;;6.57;;
72517;SDS011;60540;51.178;6.738;2023-10-19T02:36:26;12.48;;;6.75;;
72517;SDS011;60540;51.178;6.738;2023-10-19T02:39:02;10.10;;;5.78;;
72517;SDS011;60540;51.178;6.738;2023-10-19T02:41:33;10.75;;;6.05;;
72517;SDS011;60540;51.178;6.738;2023-10-19T02:44:01;11.95;;;6.45;;
72517;SDS011;60540;51.178;6.738;2023-10-19T02:46:51;9.70;;;5.85;;
72517;SDS011;60540;51.178;6.738;2023-10-19T02:49:20;9.93;;;5.97;;
72517;SDS011;60540;51.178;6.738;2023-10-19T02:51:47;8.88;;;5.35;;
72517;SDS011;60540;51.178;6.738;2023-10-19T02:54:17;8.45;;;5.28;;
72517;SDS011;60540;51.178;6.738;2023-10-19T02:56:48;9.95;;;5.07;;
72517;SDS011;60540;51.178;6.738;2023-10-19T02:59:16;11.52;;;5.50;;
72517;SDS011;60540;51.178;6.738;2023-10-19T03:01:47;10.30;;;5.22;;
72517;SDS011;60540;51.178;6.738;2023-10-19T03:04:14;8.38;;;5.40;;
72517;SDS011;60540;51.178;6.738;2023-10-19T03:06:40;8.60;;;5.13;;
72517;SDS011;60540;51.178;6.738;2023-10-19T03:09:07;8.68;;;5.38;;
72517;SDS011;60540;51.178;6.738;2023-10-19T03:11:41;13.30;;;6.50;;
72517;SDS011;60540;51.178;6.738;2023-10-19T03:14:09;10.65;;;5.97;;
72517;SDS011;60540;51.178;6.738;2023-10-19T03:16:37;10.20;;;5.55;;
72517;SDS011;60540;51.178;6.738;2023-10-19T03:19:06;12.30;;;6.50;;
72517;SDS011;60540;51.178;6.738;2023-10-19T03:24:11;12.63;;;6.57;;
72517;SDS011;60540;51.178;6.738;2023-10-19T03:27:04;10.50;;;6.05;;
72517;SDS011;60540;51.178;6.738;2023-10-19T03:29:49;9.43;;;5.60;;
72517;SDS011;60540;51.178;6.738;2023-10-19T03:32:25;10.90;;;5.28;;
72517;SDS011;60540;51.178;6.738;2023-10-19T03:34:57;8.88;;;5.15;;
72517;SDS011;60540;51.178;6.738;2023-10-19T03:37:25;8.23;;;4.88;;
72517;SDS011;60540;51.178;6.738;2023-10-19T03:39:54;6.75;;;4.65;;
72517;SDS011;60540;51.178;6.738;2023-10-19T03:42:24;9.10;;;5.10;;
72517;SDS011;60540;51.178;6.738;2023-10-19T03:44:59;8.27;;;5.18;;
72517;SDS011;60540;51.178;6.738;2023-10-19T03:47:27;9.68;;;5.35;;
72517;SDS011;60540;51.178;6.738;2023-10-19T03:50:03;9.38;;;5.65;;
72517;SDS011;60540;51.178;6.738;2023-10-19T03:52:35;9.85;;;5.25;;
72517;SDS011;60540;51.178;6.738;2023-10-19T03:55:03;9.55;;;5.25;;
72517;SDS011;60540;51.178;6.738;2023-10-19T03:57:36;8.32;;;4.95;;
72517;SDS011;60540;51.178;6.738;2023-10-19T04:00:06;10.57;;;5.68;;
72517;SDS011;60540;51.178;6.738;2023-10-19T04:02:40;8.93;;;4.75;;
72517;SDS011;60540;51.178;6.738;2023-10-19T04:05:10;9.13;;;5.30;;
72517;SDS011;60540;51.178;6.738;2023-10-19T04:07:40;9.82;;;5.20;;
72517;SDS011;60540;51.178;6.738;2023-10-19T04:12:37;7.60;;;4.85;;
72517;SDS011;60540;51.178;6.738;2023-10-19T04:15:06;9.85;;;5.03;;
72517;SDS011;60540;51.178;6.738;2023-10-19T04:17:38;7.28;;;4.47;;
72517;SDS011;60540;51.178;6.738;2023-10-19T04:20:08;7.80;;;4.47;;
72517;SDS011;60540;51.178;6.738;2023-10-19T04:22:53;8.15;;;5.03;;
72517;SDS011;60540;51.178;6.738;2023-10-19T04:25:19;10.23;;;5.28;;
72517;SDS011;60540;51.178;6.738;2023-10-19T04:27:48;7.75;;;4.70;;
72517;SDS011;60540;51.178;6.738;2023-10-19T04:30:15;7.30;;;4.15;;
72517;SDS011;60540;51.178;6.738;2023-10-19T04:32:44;8.32;;;4.50;;
72517;SDS011;60540;51.178;6.738;2023-10-19T04:35:11;8.27;;;4.78;;
72517;SDS011;60540;51.178;6.738;2023-10-19T04:37:39;8.13;;;4.55;;
72517;SDS011;60540;51.178;6.738;2023-10-19T04:40:08;6.10;;;4.38;;
72517;SDS011;60540;51.178;6.738;2023-10-19T04:42:35;8.13;;;4.90;;
72517;SDS011;60540;51.178;6.738;2023-10-19T04:47:28;7.82;;;4.22;;
72517;SDS011;60540;51.178;6.738;2023-10-19T04:49:53;6.97;;;4.10;;
72517;SDS011;60540;51.178;6.738;2023-10-19T04:52:19;7.43;;;3.97;;
72517;SDS011;60540;51.178;6.738;2023-10-19T04:54:45;9.27;;;4.15;;
72517;SDS011;60540;51.178;6.738;2023-10-19T04:57:11;6.75;;;3.58;;
72517;SDS011;60540;51.178;6.738;2023-10-19T04:59:36;6.38;;;4.05;;
72517;SDS011;60540;51.178;6.738;2023-10-19T05:02:02;7.75;;;4.40;;
72517;SDS011;60540;51.178;6.738;2023-10-19T05:04:28;6.03;;;3.80;;
72517;SDS011;60540;51.178;6.738;2023-10-19T05:06:55;7.03;;;4.18;;
72517;SDS011;60540;51.178;6.738;2023-10-19T05:09:20;7.03;;;3.78;;
72517;SDS011;60540;51.178;6.738;2023-10-19T05:11:46;6.70;;;3.85;;
72517;SDS011;60540;51.178;6.738;2023-10-19T05:14:13;7.55;;;4.07;;
72517;SDS011;60540;51.178;6.738;2023-10-19T05:16:39;7.07;;;3.85;;
72517;SDS011;60540;51.178;6.738;2023-10-19T05:19:05;7.20;;;3.83;;
72517;SDS011;60540;51.178;6.738;2023-10-19T05:21:31;7.65;;;3.50;;
72517;SDS011;60540;51.178;6.738;2023-10-19T05:23:57;7.18;;;4.00;;
72517;SDS011;60540;51.178;6.738;2023-10-19T05:26:26;6.22;;;3.65;;
72517;SDS011;60540;51.178;6.738;2023-10-19T05:28:52;7.05;;;4.00;;
72517;SDS011;60540;51.178;6.738;2023-10-19T05:31:17;8.50;;;3.70;;
72517;SDS011;60540;51.178;6.738;2023-10-19T05:33:43;8.35;;;3.97;;
72517;SDS011;60540;51.178;6.738;2023-10-19T05:36:09;6.45;;;3.70;;
72517;SDS011;60540;51.178;6.738;2023-10-19T05:38:35;7.20;;;4.20;;
72517;SDS011;60540;51.178;6.738;2023-10-19T05:41:01;8.55;;;4.03;;
72517;SDS011;60540;51.178;6.738;2023-10-19T05:43:26;7.90;;;4.35;;
72517;SDS011;60540;51.178;6.738;2023-10-19T05:48:19;6.57;;;3.90;;
72517;SDS011;60540;51.178;6.738;2023-10-19T05:50:46;8.20;;;4.40;;
72517;SDS011;60540;51.178;6.738;2023-10-19T05:53:11;7.05;;;4.05;;
72517;SDS011;60540;51.178;6.738;2023-10-19T05:55:39;6.78;;;4.05;;
72517;SDS011;60540;51.178;6.738;2023-10-19T05:58:05;6.60;;;4.22;;
72517;SDS011;60540;51.178;6.738;2023-10-19T06:00:31;6.38;;;3.80;;
72517;SDS011;60540;51.178;6.738;2023-10-19T06:02:57;9.57;;;3.88;;
72517;SDS011;60540;51.178;6.738;2023-10-19T06:05:25;6.85;;;4.18;;
72517;SDS011;60540;51.178;6.738;2023-10-19T06:07:51;6.63;;;4.38;;
72517;SDS011;60540;51.178;6.738;2023-10-19T06:10:18;7.60;;;4.13;;
72517;SDS011;60540;51.178;6.738;2023-10-19T06:12:46;7.88;;;3.95;;
72517;SDS011;60540;51.178;6.738;2023-10-19T06:15:17;7.82;;;4.30;;
72517;SDS011;60540;51.178;6.738;2023-10-19T06:17:44;8.70;;;4.65;;
72517;SDS011;60540;51.178;6.738;2023-10-19T06:20:11;7.20;;;4.28;;
72517;SDS011;60540;51.178;6.738;2023-10-19T06:22:53;7.53;;;4.50;;
72517;SDS011;60540;51.178;6.738;2023-10-19T06:25:21;6.93;;;3.97;;
72517;SDS011;60540;51.178;6.738;2023-10-19T06:27:48;7.65;;;4.25;;
72517;SDS011;60540;51.178;6.738;2023-10-19T06:30:15;7.95;;;4.53;;
72517;SDS011;60540;51.178;6.738;2023-10-19T06:32:45;6.50;;;4.25;;
72517;SDS011;60540;51.178;6.738;2023-10-19T06:35:13;6.97;;;4.45;;
72517;SDS011;60540;51.178;6.738;2023-10-19T06:37:38;8.52;;;4.25;;
72517;SDS011;60540;51.178;6.738;2023-10-19T06:40:05;7.00;;;4.95;;
72517;SDS011;60540;51.178;6.738;2023-10-19T06:42:32;7.72;;;4.10;;
72517;SDS011;60540;51.178;6.738;2023-10-19T06:44:57;6.82;;;3.83;;
72517;SDS011;60540;51.178;6.738;2023-10-19T06:47:23;7.65;;;4.40;;
72517;SDS011;60540;51.178;6.738;2023-10-19T06:49:49;8.13;;;3.92;;
72517;SDS011;60540;51.178;6.738;2023-10-19T06:52:15;7.20;;;4.40;;
72517;SDS011;60540;51.178;6.738;2023-10-19T06:54:41;6.30;;;3.83;;
72517;SDS011;60540;51.178;6.738;2023-10-19T06:57:07;8.13;;;4.28;;
72517;SDS011;60540;51.178;6.738;2023-10-19T06:59:35;6.53;;;4.07;;
72517;SDS011;60540;51.178;6.738;2023-10-19T07:02:01;7.15;;;4.07;;
72517;SDS011;60540;51.178;6.738;2023-10-19T07:04:28;6.80;;;3.78;;
72517;SDS011;60540;51.178;6.738;2023-10-19T07:06:54;6.35;;;3.78;;
72517;SDS011;60540;51.178;6.738;2023-10-19T07:09:21;7.15;;;4.13;;
72517;SDS011;60540;51.178;6.738;2023-10-19T07:11:46;8.15;;;4.55;;
72517;SDS011;60540;51.178;6.738;2023-10-19T07:14:13;7.70;;;4.07;;
72517;SDS011;60540;51.178;6.738;2023-10-19T07:16:41;8.70;;;4.22;;
72517;SDS011;60540;51.178;6.738;2023-10-19T07:19:07;8.43;;;4.03;;
72517;SDS011;60540;51.178;6.738;2023-10-19T07:21:35;6.05;;;3.58;;
72517;SDS011;60540;51.178;6.738;2023-10-19T07:24:03;8.07;;;4.18;;
72517;SDS011;60540;51.178;6.738;2023-10-19T07:26:34;10.15;;;4.22;;
72517;SDS011;60540;51.178;6.738;2023-10-19T07:29:07;9.88;;;4.20;;
72517;SDS011;60540;51.178;6.738;2023-10-19T07:31:35;7.40;;;4.15;;
72517;SDS011;60540;51.178;6.738;2023-10-19T07:34:01;6.90;;;4.22;;
72517;SDS011;60540;51.178;6.738;2023-10-19T07:36:29;7.45;;;4.10;;
72517;SDS011;60540;51.178;6.738;2023-10-19T07:38:54;9.02;;;4.18;;
72517;SDS011;60540;51.178;6.738;2023-10-19T07:41:20;7.47;;;4.30;;
72517;SDS011;60540;51.178;6.738;2023-10-19T07:43:46;7.45;;;4.07;;
72517;SDS011;60540;51.178;6.738;2023-10-19T07:46:12;8.60;;;4.35;;
72517;SDS011;60540;51.178;6.738;2023-10-19T07:48:38;6.72;;;4.05;;
72517;SDS011;60540;51.178;6.738;2023-10-19T07:51:04;7.88;;;4.18;;
72517;SDS011;60540;51.178;6.738;2023-10-19T07:53:30;8.48;;;4.00;;
72517;SDS011;60540;51.178;6.738;2023-10-19T07:55:55;7.85;;;3.63;;
72517;SDS011;60540;51.178;6.738;2023-10-19T08:00:48;6.65;;;4.32;;
72517;SDS011;60540;51.178;6.738;2023-10-19T08:03:14;6.50;;;4.05;;
72517;SDS011;60540;51.178;6.738;2023-10-19T08:05:42;6.80;;;4.30;;
72517;SDS011;60540;51.178;6.738;2023-10-19T08:08:08;8.45;;;4.55;;
72517;SDS011;60540;51.178;6.738;2023-10-19T08:10:34;7.55;;;4.40;;
72517;SDS011;60540;51.178;6.738;2023-10-19T08:13:00;6.97;;;4.32;;
72517;SDS011;60540;51.178;6.738;2023-10-19T08:15:26;7.13;;;3.90;;
72517;SDS011;60540;51.178;6.738;2023-10-19T08:17:52;6.75;;;4.18;;
72517;SDS011;60540;51.178;6.738;2023-10-19T08:20:20;8.13;;;3.90;;
72517;SDS011;60540;51.178;6.738;2023-10-19T08:22:50;9.43;;;4.78;;
72517;SDS011;60540;51.178;6.738;2023-10-19T08:25:16;8.45;;;4.78;;
72517;SDS011;60540;51.178;6.738;2023-10-19T08:27:42;7.78;;;4.10;;
72517;SDS011;60540;51.178;6.738;2023-10-19T08:30:20;5.80;;;3.72;;
72517;SDS011;60540;51.178;6.738;2023-10-19T08:32:49;6.65;;;4.25;;
72517;SDS011;60540;51.178;6.738;2023-10-19T08:35:17;6.30;;;3.80;;
72517;SDS011;60540;51.178;6.738;2023-10-19T08:37:50;7.13;;;4.53;;
72517;SDS011;60540;51.178;6.738;2023-10-19T08:40:16;8.20;;;4.15;;
72517;SDS011;60540;51.178;6.738;2023-10-19T08:42:46;8.95;;;3.83;;
72517;SDS011;60540;51.178;6.738;2023-10-19T08:45:12;6.18;;;3.30;;
72517;SDS011;60540;51.178;6.738;2023-10-19T08:47:56;6.38;;;3.58;;
72517;SDS011;60540;51.178;6.738;2023-10-19T08:50:23;9.10;;;3.78;;
72517;SDS011;60540;51.178;6.738;2023-10-19T08:52:52;6.40;;;3.95;;
72517;SDS011;60540;51.178;6.738;2023-10-19T08:55:18;7.07;;;3.78;;
72517;SDS011;60540;51.178;6.738;2023-10-19T08:57:45;7.82;;;3.83;;
72517;SDS011;60540;51.178;6.738;2023-10-19T09:00:14;9.30;;;4.35;;
72517;SDS011;60540;51.178;6.738;2023-10-19T09:02:44;8.80;;;4.20;;
72517;SDS011;60540;51.178;6.738;2023-10-19T09:05:12;7.85;;;4.22;;
72517;SDS011;60540;51.178;6.738;2023-10-19T09:10:15;7.40;;;3.63;;
72517;SDS011;60540;51.178;6.738;2023-10-19T09:12:42;6.75;;;3.70;;
72517;SDS011;60540;51.178;6.738;2023-10-19T09:15:23;5.75;;;3.72;;
72517;SDS011;60540;51.178;6.738;2023-10-19T09:17:49;7.60;;;3.70;;
72517;SDS011;60540;51.178;6.738;2023-10-19T09:20:15;6.95;;;3.72;;
72517;SDS011;60540;51.178;6.738;2023-10-19T09:22:55;7.10;;;3.20;;
72517;SDS011;60540;51.178;6.738;2023-10-19T09:25:23;6.88;;;3.60;;
72517;SDS011;60540;51.178;6.738;2023-10-19T09:27:49;7.18;;;3.13;;
72517;SDS011;60540;51.178;6.738;2023-10-19T09:30:15;6.68;;;2.90;;
72517;SDS011;60540;51.178;6.738;2023-10-19T09:32:47;7.30;;;3.28;;
72517;SDS011;60540;51.178;6.738;2023-10-19T09:35:13;6.88;;;4.10;;
72517;SDS011;60540;51.178;6.738;2023-10-19T09:37:42;8.00;;;3.50;;
72517;SDS011;60540;51.178;6.738;2023-10-19T09:40:08;6.18;;;3.22;;
72517;SDS011;60540;51.178;6.738;2023-10-19T09:42:44;5.85;;;3.15;;
72517;SDS011;60540;51.178;6.738;2023-10-19T09:45:14;12.23;;;5.57;;
72517;SDS011;60540;51.178;6.738;2023-10-19T09:47:44;6.18;;;3.42;;
72517;SDS011;60540;51.178;6.738;2023-10-19T09:50:14;6.10;;;2.65;;
72517;SDS011;60540;51.178;6.738;2023-10-19T09:52:40;8.75;;;2.78;;
72517;SDS011;60540;51.178;6.738;2023-10-19T09:57:47;4.80;;;2.05;;
72517;SDS011;60540;51.178;6.738;2023-10-19T10:00:16;3.78;;;1.60;;
72517;SDS011;60540;51.178;6.738;2023-10-19T10:02:49;5.13;;;2.00;;
72517;SDS011;60540;51.178;6.738;2023-10-19T10:10:43;6.03;;;1.50;;
72517;SDS011;60540;51.178;6.738;2023-10-19T10:13:35;6.30;;;1.60;;
72517;SDS011;60540;51.178;6.738;2023-10-19T10:16:01;6.65;;;2.00;;
72517;SDS011;60540;51.178;6.738;2023-10-19T10:18:33;4.50;;;1.70;;
72517;SDS011;60540;51.178;6.738;2023-10-19T10:21:06;4.40;;;1.50;;
72517;SDS011;60540;51.178;6.738;2023-10-19T10:23:59;4.10;;;1.52;;
72517;SDS011;60540;51.178;6.738;2023-10-19T10:26:26;6.70;;;1.75;;
72517;SDS011;60540;51.178;6.738;2023-10-19T10:29:14;8.32;;;1.85;;
72517;SDS011;60540;51.178;6.738;2023-10-19T10:31:48;3.80;;;1.77;;
72517;SDS011;60540;51.178;6.738;2023-10-19T10:37:05;5.55;;;1.33;;
72517;SDS011;60540;51.178;6.738;2023-10-19T10:39:39;5.18;;;1.50;;
72517;SDS011;60540;51.178;6.738;2023-10-19T10:42:07;7.70;;;2.55;;
72517;SDS011;60540;51.178;6.738;2023-10-19T10:47:09;5.18;;;1.10;;
72517;SDS011;60540;51.178;6.738;2023-10-19T10:50:00;5.95;;;1.77;;
72517;SDS011;60540;51.178;6.738;2023-10-19T10:54:57;6.00;;;1.30;;
72517;SDS011;60540;51.178;6.738;2023-10-19T10:57:24;4.95;;;1.45;;
72517;SDS011;60540;51.178;6.738;2023-10-19T11:00:00;5.97;;;1.33;;
72517;SDS011;60540;51.178;6.738;2023-10-19T11:02:30;4.45;;;1.35;;
72517;SDS011;60540;51.178;6.738;2023-10-19T11:04:56;5.90;;;1.20;;
72517;SDS011;60540;51.178;6.738;2023-10-19T11:07:21;6.07;;;1.50;;
72517;SDS011;60540;51.178;6.738;2023-10-19T11:09:48;4.70;;;2.13;;
72517;SDS011;60540;51.178;6.738;2023-10-19T11:12:13;5.10;;;1.50;;
72517;SDS011;60540;51.178;6.738;2023-10-19T11:14:56;6.05;;;1.55;;
72517;SDS011;60540;51.178;6.738;2023-10-19T11:17:24;3.80;;;1.30;;
72517;SDS011;60540;51.178;6.738;2023-10-19T11:19:56;4.00;;;1.15;;
72517;SDS011;60540;51.178;6.738;2023-10-19T11:24:55;5.32;;;1.67;;
72517;SDS011;60540;51.178;6.738;2023-10-19T11:27:25;5.28;;;2.40;;
72517;SDS011;60540;51.178;6.738;2023-10-19T11:29:55;4.22;;;1.10;;
72517;SDS011;60540;51.178;6.738;2023-10-19T11:34:52;7.13;;;1.80;;
72517;SDS011;60540;51.178;6.738;2023-10-19T11:37:19;7.28;;;1.58;;
72517;SDS011;60540;51.178;6.738;2023-10-19T11:39:45;4.40;;;1.70;;
72517;SDS011;60540;51.178;6.738;2023-10-19T11:42:11;6.70;;;1.35;;
72517;SDS011;60540;51.178;6.738;2023-10-19T11:44:38;4.85;;;1.30;;
72517;SDS011;60540;51.178;6.738;2023-10-19T11:47:04;9.20;;;1.67;;
72517;SDS011;60540;51.178;6.738;2023-10-19T11:49:30;7.60;;;1.95;;
72517;SDS011;60540;51.178;6.738;2023-10-19T11:51:56;5.68;;;1.55;;
72517;SDS011;60540;51.178;6.738;2023-10-19T11:54:22;6.43;;;1.60;;
72517;SDS011;60540;51.178;6.738;2023-10-19T11:56:48;7.57;;;1.90;;
72517;SDS011;60540;51.178;6.738;2023-10-19T11:59:14;5.18;;;1.58;;
72517;SDS011;60540;51.178;6.738;2023-10-19T12:01:40;6.45;;;1.60;;
72517;SDS011;60540;51.178;6.738;2023-10-19T12:04:08;5.45;;;1.25;;
72517;SDS011;60540;51.178;6.738;2023-10-19T12:06:34;8.73;;;1.70;;
72517;SDS011;60540;51.178;6.738;2023-10-19T12:09:00;4.32;;;1.40;;
72517;SDS011;60540;51.178;6.738;2023-10-19T12:11:40;5.90;;;1.35;;
72517;SDS011;60540;51.178;6.738;2023-10-19T12:16:37;4.03;;;1.33;;
72517;SDS011;60540;51.178;6.738;2023-10-19T12:19:05;5.38;;;1.60;;
72517;SDS011;60540;51.178;6.738;2023-10-19T12:21:30;4.90;;;1.70;;
72517;SDS011;60540;51.178;6.738;2023-10-19T12:23:56;4.35;;;1.55;;
72517;SDS011;60540;51.178;6.738;2023-10-19T12:26:24;4.25;;;1.75;;
72517;SDS011;60540;51.178;6.738;2023-10-19T12:28:50;4.70;;;1.42;;
72517;SDS011;60540;51.178;6.738;2023-10-19T12:31:16;5.35;;;1.48;;
72517;SDS011;60540;51.178;6.738;2023-10-19T12:33:44;6.18;;;1.67;;
72517;SDS011;60540;51.178;6.738;2023-10-19T12:36:10;6.25;;;1.60;;
72517;SDS011;60540;51.178;6.738;2023-10-19T12:38:54;3.05;;;1.25;;
72517;SDS011;60540;51.178;6.738;2023-10-19T12:41:20;3.92;;;1.17;;
72517;SDS011;60540;51.178;6.738;2023-10-19T12:43:47;4.22;;;1.50;;
72517;SDS011;60540;51.178;6.738;2023-10-19T12:46:15;5.20;;;1.55;;
72517;SDS011;60540;51.178;6.738;2023-10-19T12:48:42;5.30;;;2.40;;
72517;SDS011;60540;51.178;6.738;2023-10-19T12:53:37;5.75;;;1.90;;
72517;SDS011;60540;51.178;6.738;2023-10-19T12:56:04;4.95;;;2.03;;
72517;SDS011;60540;51.178;6.738;2023-10-19T12:58:37;9.00;;;2.38;;
72517;SDS011;60540;51.178;6.738;2023-10-19T13:01:03;7.90;;;2.13;;
72517;SDS011;60540;51.178;6.738;2023-10-19T13:03:30;5.75;;;2.20;;
72517;SDS011;60540;51.178;6.738;2023-10-19T13:06:01;7.40;;;2.03;;
72517;SDS011;60540;51.178;6.738;2023-10-19T13:08:30;6.28;;;2.03;;
72517;SDS011;60540;51.178;6.738;2023-10-19T13:10:56;5.78;;;1.80;;
72517;SDS011;60540;51.178;6.738;2023-10-19T13:13:22;7.68;;;1.50;;
72517;SDS011;60540;51.178;6.738;2023-10-19T13:15:49;6.72;;;1.50;;
72517;SDS011;60540;51.178;6.738;2023-10-19T13:18:15;4.78;;;1.50;;
72517;SDS011;60540;51.178;6.738;2023-10-19T13:20:53;9.70;;;1.80;;
72517;SDS011;60540;51.178;6.738;2023-10-19T13:23:20;9.25;;;1.70;;
72517;SDS011;60540;51.178;6.738;2023-10-19T13:25:49;8.02;;;1.90;;
72517;SDS011;60540;51.178;6.738;2023-10-19T13:28:20;5.82;;;1.65;;
72517;SDS011;60540;51.178;6.738;2023-10-19T13:30:48;5.18;;;1.30;;
72517;SDS011;60540;51.178;6.738;2023-10-19T13:33:18;5.68;;;1.70;;
72517;SDS011;60540;51.178;6.738;2023-10-19T13:35:46;7.10;;;1.90;;
72517;SDS011;60540;51.178;6.738;2023-10-19T13:38:13;7.00;;;1.85;;
72517;SDS011;60540;51.178;6.738;2023-10-19T13:40:40;5.78;;;2.05;;
72517;SDS011;60540;51.178;6.738;2023-10-19T13:43:07;6.25;;;2.35;;
72517;SDS011;60540;51.178;6.738;2023-10-19T13:45:34;5.75;;;2.53;;
72517;SDS011;60540;51.178;6.738;2023-10-19T13:48:04;7.03;;;2.30;;
72517;SDS011;60540;51.178;6.738;2023-10-19T13:50:31;8.40;;;2.42;;
72517;SDS011;60540;51.178;6.738;2023-10-19T13:55:23;6.15;;;2.22;;
72517;SDS011;60540;51.178;6.738;2023-10-19T13:57:49;5.78;;;2.50;;
72517;SDS011;60540;51.178;6.738;2023-10-19T14:00:15;7.38;;;2.00;;
72517;SDS011;60540;51.178;6.738;2023-10-19T14:02:49;4.80;;;1.98;;
72517;SDS011;60540;51.178;6.738;2023-10-19T14:05:16;7.63;;;2.38;;
72517;SDS011;60540;51.178;6.738;2023-10-19T14:07:42;5.18;;;2.28;;
72517;SDS011;60540;51.178;6.738;2023-10-19T14:12:38;5.07;;;1.85;;
72517;SDS011;60540;51.178;6.738;2023-10-19T14:15:08;4.95;;;1.58;;
72517;SDS011;60540;51.178;6.738;2023-10-19T14:17:38;7.25;;;1.70;;
72517;SDS011;60540;51.178;6.738;2023-10-19T14:20:03;3.55;;;1.52;;
72517;SDS011;60540;51.178;6.738;2023-10-19T14:22:31;4.45;;;1.63;;
72517;SDS011;60540;51.178;6.738;2023-10-19T14:25:00;5.75;;;1.90;;
72517;SDS011;60540;51.178;6.738;2023-10-19T14:27:26;7.65;;;1.88;;
72517;SDS011;60540;51.178;6.738;2023-10-19T14:29:53;5.70;;;1.80;;
72517;SDS011;60540;51.178;6.738;2023-10-19T14:32:19;5.68;;;2.08;;
72517;SDS011;60540;51.178;6.738;2023-10-19T14:34:44;5.80;;;2.05;;
72517;SDS011;60540;51.178;6.738;2023-10-19T14:37:10;7.45;;;1.70;;
72517;SDS011;60540;51.178;6.738;2023-10-19T14:39:36;4.90;;;1.90;;
72517;SDS011;60540;51.178;6.738;2023-10-19T14:42:02;7.82;;;2.00;;
72517;SDS011;60540;51.178;6.738;2023-10-19T14:44:28;6.70;;;2.45;;
72517;SDS011;60540;51.178;6.738;2023-10-19T14:46:54;5.05;;;1.80;;
72517;SDS011;60540;51.178;6.738;2023-10-19T14:49:20;7.75;;;1.98;;
72517;SDS011;60540;51.178;6.738;2023-10-19T14:51:46;7.25;;;1.92;;
72517;SDS011;60540;51.178;6.738;2023-10-19T14:54:12;4.18;;;1.80;;
72517;SDS011;60540;51.178;6.738;2023-10-19T14:56:38;6.00;;;1.80;;
72517;SDS011;60540;51.178;6.738;2023-10-19T14:59:03;7.97;;;2.20;;
72517;SDS011;60540;51.178;6.738;2023-10-19T15:01:30;5.85;;;1.85;;
72517;SDS011;60540;51.178;6.738;2023-10-19T15:03:56;5.78;;;1.80;;
72517;SDS011;60540;51.178;6.738;2023-10-19T15:06:22;9.23;;;2.08;;
72517;SDS011;60540;51.178;6.738;2023-10-19T15:08:48;6.25;;;1.88;;
72517;SDS011;60540;51.178;6.738;2023-10-19T15:11:17;5.13;;;1.83;;
72517;SDS011;60540;51.178;6.738;2023-10-19T15:13:44;6.05;;;1.88;;
72517;SDS011;60540;51.178;6.738;2023-10-19T15:16:10;6.95;;;2.03;;
72517;SDS011;60540;51.178;6.738;2023-10-19T15:18:37;5.80;;;2.20;;
72517;SDS011;60540;51.178;6.738;2023-10-19T15:21:07;5.13;;;1.83;;
72517;SDS011;60540;51.178;6.738;2023-10-19T15:23:34;5.68;;;2.05;;
72517;SDS011;60540;51.178;6.738;2023-10-19T15:26:00;5.55;;;2.05;;
72517;SDS011;60540;51.178;6.738;2023-10-19T15:28:25;6.60;;;2.00;;
72517;SDS011;60540;51.178;6.738;2023-10-19T15:30:51;7.00;;;1.98;;
72517;SDS011;60540;51.178;6.738;2023-10-19T15:33:17;5.55;;;2.03;;
72517;SDS011;60540;51.178;6.738;2023-10-19T15:35:47;4.57;;;2.00;;
72517;SDS011;60540;51.178;6.738;2023-10-19T15:38:12;4.85;;;1.70;;
72517;SDS011;60540;51.178;6.738;2023-10-19T15:40:38;6.47;;;1.92;;
72517;SDS011;60540;51.178;6.738;2023-10-19T15:45:31;4.25;;;1.58;;